Camp Pendleton MCAS (Munn Field) Airport Oceanside US
ICAO: KNFG
IATA: NFG
Category: Medium
Scheduled Services: No

Elevation: 78 ft
TransAlt. 18000 ft.

Airport Communications:
SOCAL APP/DEP:127.3
APP/DEP:128.45
ATIS:26.76
CLNC DEL:126.2
GND:128.775
MCB RANGE CON:123.2
BASE OPS:26.5
PMSV METRO:34.24
TWR:128.775

KNFG Zoom In..

If Map Doesn't Load, Click Here

Runways:

(A) RW 03 length 6005 ft width 200 ft
---- / hdg 31

(B) RW 21 length 6005 ft width 200 ft
---- / hdg 211

Location; KNFG
Day. 23 / Time. 21.55 Zulu
* Altimeter: 29.84
* Temperature: 24° c. 75.2°f.
* Wind from: 220° Speed 08 kn.
Dewpoint: 17° c.
Visibility: 10 Statute Miles.
Clouds: Clear (automated report).

KNFG 232155Z AUTO 22008KT 10SM CLR 24/17 A2984 RMK AO2 SLP103 T02390172 $


Wind From 220°
Speed 08 kn.

 
 
jpsmedia.com for Web Design worldairports.se 2018   terms of use